createdAt,value
2017-11-19T00:03:36.926Z,4.90
2017-11-19T00:08:39.780Z,4.90
2017-11-19T00:13:44.031Z,4.90
2017-11-19T00:18:48.308Z,4.90
2017-11-19T00:23:51.128Z,4.90
2017-11-19T00:28:53.726Z,4.90
2017-11-19T00:33:57.316Z,4.80
2017-11-19T00:38:59.909Z,4.80
2017-11-19T00:44:03.414Z,4.70
2017-11-19T00:49:06.780Z,4.70
2017-11-19T00:54:09.450Z,4.70
2017-11-19T00:59:12.023Z,4.70
2017-11-19T01:04:14.748Z,4.60
2017-11-19T01:09:17.346Z,4.60
2017-11-19T01:14:20.349Z,4.60
2017-11-19T01:19:23.775Z,4.50
2017-11-19T01:24:26.457Z,4.50
2017-11-19T01:29:29.889Z,4.50
2017-11-19T01:34:32.903Z,4.50
2017-11-19T01:39:35.597Z,4.50
2017-11-19T01:44:38.608Z,4.50
2017-11-19T01:49:41.187Z,4.50
2017-11-19T01:54:44.732Z,4.40
2017-11-19T01:59:47.466Z,4.40
2017-11-19T02:04:50.984Z,4.40
2017-11-19T02:09:53.558Z,4.40
2017-11-19T02:14:56.884Z,4.40
2017-11-19T02:19:59.492Z,4.40
2017-11-19T02:25:02.615Z,4.40
2017-11-19T02:30:05.238Z,4.30
2017-11-19T02:35:08.255Z,4.40
2017-11-19T02:40:11.795Z,4.30
2017-11-19T02:45:14.493Z,4.30
2017-11-19T02:50:17.097Z,4.30
2017-11-19T02:55:21.221Z,4.30
2017-11-19T03:00:23.926Z,4.30
2017-11-19T03:05:26.973Z,4.30
2017-11-19T03:10:29.760Z,4.20
2017-11-19T03:15:33.093Z,4.20
2017-11-19T03:20:35.680Z,4.20
2017-11-19T03:25:38.877Z,4.20
2017-11-19T03:30:41.465Z,4.10
2017-11-19T03:35:44.138Z,4.20
2017-11-19T03:40:47.507Z,4.00
2017-11-19T03:45:50.977Z,4.10
2017-11-19T03:50:54.352Z,4.00
2017-11-19T03:55:57.208Z,4.00
2017-11-19T04:00:59.798Z,4.00
2017-11-19T04:06:04.189Z,4.00
2017-11-19T04:11:06.760Z,4.00
2017-11-19T04:16:09.836Z,3.80
2017-11-19T04:21:13.223Z,3.80
2017-11-19T04:26:16.567Z,3.80
2017-11-19T04:31:19.944Z,3.70
2017-11-19T04:36:23.278Z,3.70
2017-11-19T04:41:25.946Z,3.70
2017-11-19T04:46:29.008Z,3.70
2017-11-19T04:51:32.355Z,3.70
2017-11-19T04:56:35.011Z,3.60
2017-11-19T05:01:38.388Z,3.70
2017-11-19T05:06:41.205Z,3.60
2017-11-19T05:11:43.828Z,3.70
2017-11-19T05:16:47.856Z,3.70
2017-11-19T05:21:50.431Z,3.70
2017-11-19T05:26:53.664Z,3.70
2017-11-19T05:31:56.287Z,3.80
2017-11-19T05:36:59.897Z,3.80
2017-11-19T05:42:02.472Z,3.80
2017-11-19T05:47:05.118Z,3.70
2017-11-19T05:52:07.699Z,3.70
2017-11-19T05:57:11.320Z,3.70
2017-11-19T06:02:14.697Z,3.70
2017-11-19T06:07:17.360Z,3.70
2017-11-19T06:12:19.976Z,3.60
2017-11-19T06:17:23.440Z,3.60
2017-11-19T06:22:26.845Z,3.60
2017-11-19T06:27:30.420Z,3.60
2017-11-19T06:32:33.032Z,3.60
2017-11-19T06:37:36.112Z,3.60
2017-11-19T06:42:39.493Z,3.60
2017-11-19T06:47:43.652Z,3.60
2017-11-19T06:52:47.044Z,3.60
2017-11-19T06:57:50.800Z,3.70
2017-11-19T07:02:54.207Z,3.60
2017-11-19T07:07:57.924Z,3.60
2017-11-19T07:13:00.526Z,3.60
2017-11-19T07:18:03.562Z,3.60
2017-11-19T07:23:06.150Z,3.60
2017-11-19T07:28:09.740Z,3.70
2017-11-19T07:33:13.892Z,3.80
2017-11-19T07:38:17.455Z,3.80
2017-11-19T07:43:20.104Z,3.80
2017-11-19T07:48:23.060Z,3.90
2017-11-19T07:53:25.676Z,4.00
2017-11-19T07:58:28.852Z,4.00
2017-11-19T08:03:31.485Z,4.10
2017-11-19T08:08:34.970Z,4.20
2017-11-19T08:13:37.588Z,4.20
2017-11-19T08:18:40.820Z,4.20
2017-11-19T08:23:43.439Z,4.30
2017-11-19T08:28:47.590Z,4.40
2017-11-19T08:33:50.967Z,4.50
2017-11-19T08:38:54.208Z,4.40
2017-11-19T08:43:56.826Z,4.60
2017-11-19T08:49:00.658Z,4.90
2017-11-19T08:54:04.398Z,4.80
2017-11-19T08:59:07.510Z,4.80
2017-11-19T09:04:10.148Z,5.10
2017-11-19T09:09:12.853Z,5.20
2017-11-19T09:14:16.242Z,5.30
2017-11-19T09:19:19.021Z,5.30
2017-11-19T09:24:22.797Z,5.30
2017-11-19T09:29:26.757Z,5.40
2017-11-19T09:34:30.140Z,5.70
2017-11-19T09:39:32.804Z,5.60
2017-11-19T09:44:35.412Z,5.80
2017-11-19T09:49:38.159Z,6.20
2017-11-19T09:54:40.962Z,6.30
2017-11-19T09:59:44.676Z,6.40
2017-11-19T10:04:47.280Z,6.40
2017-11-19T10:09:51.238Z,6.20
2017-11-19T10:14:54.383Z,6.30
2017-11-19T10:19:57.745Z,6.20
2017-11-19T10:25:01.385Z,6.20
2017-11-19T10:30:04.700Z,6.20
2017-11-19T10:35:07.284Z,6.10
2017-11-19T10:40:11.742Z,6.40
2017-11-19T10:45:14.485Z,6.40
2017-11-19T10:50:17.777Z,6.20
2017-11-19T10:55:20.514Z,6.20
2017-11-19T11:00:25.875Z,6.20
2017-11-19T11:05:28.492Z,6.10
2017-11-19T11:10:31.274Z,6.20
2017-11-19T11:15:34.023Z,6.20
2017-11-19T11:20:37.688Z,6.30
2017-11-19T11:25:40.317Z,6.30
2017-11-19T11:30:44.352Z,6.30
2017-11-19T11:35:46.949Z,6.30
2017-11-19T11:40:56.860Z,6.30
2017-11-19T11:45:59.545Z,6.10
2017-11-19T11:51:05.064Z,6.00
2017-11-19T11:56:07.873Z,5.90
2017-11-19T12:01:12.120Z,6.00
2017-11-19T12:06:14.721Z,5.90
2017-11-19T12:11:18.260Z,6.00
2017-11-19T12:16:20.955Z,5.90
2017-11-19T12:21:25.468Z,5.90
2017-11-19T12:26:28.449Z,5.90
2017-11-19T12:31:32.404Z,5.90
2017-11-19T12:36:35.042Z,5.80
2017-11-19T12:41:39.338Z,5.80
2017-11-19T12:46:42.742Z,5.70
2017-11-19T12:51:46.183Z,5.70
2017-11-19T12:56:48.802Z,5.70
2017-11-19T13:01:52.720Z,5.60
2017-11-19T13:06:56.703Z,5.60
2017-11-19T13:12:00.377Z,5.50
2017-11-19T13:17:04.121Z,5.50
2017-11-19T13:22:09.475Z,5.40
2017-11-19T13:27:12.103Z,5.40
2017-11-19T13:32:15.269Z,5.30
2017-11-19T13:37:19.816Z,5.40
2017-11-19T13:42:23.144Z,5.50
2017-11-19T13:47:25.764Z,5.60
2017-11-19T13:52:28.818Z,5.50
2017-11-19T13:57:31.477Z,5.60
2017-11-19T14:02:34.231Z,5.60
2017-11-19T14:07:36.931Z,5.60
2017-11-19T14:12:40.469Z,5.70
2017-11-19T14:17:43.938Z,5.70
2017-11-19T14:22:47.394Z,5.70
2017-11-19T14:27:49.981Z,5.80
2017-11-19T14:32:52.756Z,5.90
2017-11-19T14:37:55.535Z,5.90
2017-11-19T14:43:01.054Z,5.80
2017-11-19T14:48:04.581Z,5.90
2017-11-19T14:53:09.090Z,5.90
2017-11-19T14:58:12.266Z,5.90
2017-11-19T15:03:15.482Z,5.90
2017-11-19T15:08:18.813Z,6.00
2017-11-19T15:13:23.026Z,6.00
2017-11-19T15:18:25.681Z,6.00
2017-11-19T15:23:31.919Z,6.10
2017-11-19T15:28:35.815Z,6.20
2017-11-19T15:33:39.608Z,6.20
2017-11-19T15:38:44.480Z,6.10
2017-11-19T15:43:50.142Z,6.20
2017-11-19T15:48:53.140Z,6.20
2017-11-19T15:53:56.950Z,6.10
2017-11-19T15:59:00.061Z,6.10
2017-11-19T16:04:05.606Z,6.10
2017-11-19T16:09:09.140Z,6.10
2017-11-19T16:14:12.256Z,6.10
2017-11-19T16:19:15.176Z,6.20
2017-11-19T16:24:20.191Z,6.20
2017-11-19T16:29:24.641Z,6.20
2017-11-19T16:34:27.517Z,6.40
2017-11-19T16:39:30.891Z,6.50
2017-11-19T16:44:34.475Z,6.40
2017-11-19T16:49:37.085Z,6.20
2017-11-19T16:54:40.131Z,6.10
2017-11-19T16:59:42.784Z,6.10
2017-11-19T17:04:47.540Z,6.20
2017-11-19T17:09:50.999Z,6.20
2017-11-19T17:14:53.957Z,6.20
2017-11-19T17:19:56.600Z,6.30
2017-11-19T17:25:00.259Z,6.30
2017-11-19T17:30:03.006Z,6.30
2017-11-19T17:35:06.049Z,6.40
2017-11-19T17:40:09.460Z,6.50
2017-11-19T17:45:12.297Z,6.50
2017-11-19T17:50:15.792Z,6.50
2017-11-19T17:55:18.479Z,6.50
2017-11-19T18:00:21.292Z,6.50
2017-11-19T18:05:24.663Z,6.50
2017-11-19T18:10:27.376Z,6.50
2017-11-19T18:15:30.553Z,6.50
2017-11-19T18:20:33.261Z,6.40
2017-11-19T18:25:37.092Z,6.40
2017-11-19T18:30:40.397Z,6.40
2017-11-19T18:35:43.811Z,6.40
2017-11-19T18:40:46.629Z,6.40
2017-11-19T18:45:50.018Z,6.40
2017-11-19T18:50:53.973Z,6.30
2017-11-19T18:55:57.793Z,6.30
2017-11-19T19:01:00.589Z,6.20
2017-11-19T19:06:04.199Z,6.10
2017-11-19T19:11:09.028Z,5.90
2017-11-19T19:16:11.798Z,5.90
2017-11-19T19:21:15.048Z,5.90
2017-11-19T19:26:24.886Z,5.90
2017-11-19T19:31:27.511Z,5.80
2017-11-19T19:36:30.448Z,5.80
2017-11-19T19:41:33.176Z,5.40
2017-11-19T19:46:36.460Z,4.90
2017-11-19T19:51:39.280Z,4.50
2017-11-19T19:56:42.653Z,3.90
2017-11-19T20:01:45.320Z,3.70
2017-11-19T20:06:48.998Z,3.60
2017-11-19T20:11:51.620Z,3.60
2017-11-19T20:16:54.917Z,3.60
2017-11-19T20:21:57.587Z,3.60
2017-11-19T20:27:01.147Z,3.70
2017-11-19T20:32:03.822Z,3.80
2017-11-19T20:37:07.487Z,4.00
2017-11-19T20:42:10.171Z,4.00
2017-11-19T20:47:14.404Z,4.00
2017-11-19T20:52:17.188Z,4.00
2017-11-19T20:57:21.227Z,4.10
2017-11-19T21:02:24.198Z,4.10
2017-11-19T21:07:27.741Z,4.00
2017-11-19T21:12:31.273Z,3.80
2017-11-19T21:17:34.384Z,3.80
2017-11-19T21:22:37.081Z,3.80
2017-11-19T21:27:40.740Z,3.90
2017-11-19T21:32:43.347Z,3.80
2017-11-19T21:37:46.576Z,3.90
2017-11-19T21:42:49.314Z,4.00
2017-11-19T21:47:52.802Z,4.00
2017-11-19T21:52:55.824Z,4.10
2017-11-19T21:57:59.994Z,4.20
2017-11-19T22:03:02.721Z,4.20
2017-11-19T22:08:05.707Z,4.20
2017-11-19T22:13:08.286Z,4.20
2017-11-19T22:18:11.585Z,4.20
2017-11-19T22:23:15.020Z,4.40
2017-11-19T22:28:18.136Z,4.40
2017-11-19T22:33:20.821Z,4.40
2017-11-19T22:38:25.596Z,4.60
2017-11-19T22:43:28.189Z,4.50
2017-11-19T22:48:31.549Z,4.50
2017-11-19T22:53:34.461Z,4.60
2017-11-19T22:58:40.469Z,4.50
2017-11-19T23:03:43.821Z,4.50
2017-11-19T23:08:46.617Z,4.50
2017-11-19T23:13:49.218Z,4.40
2017-11-19T23:18:52.464Z,4.40
2017-11-19T23:23:55.158Z,4.40
2017-11-19T23:28:58.168Z,4.40
2017-11-19T23:34:00.760Z,4.30
2017-11-19T23:39:03.815Z,4.30
2017-11-19T23:44:06.437Z,4.30
2017-11-19T23:49:09.544Z,4.20
2017-11-19T23:54:12.250Z,4.20
2017-11-19T23:59:15.782Z,4.10
